Time;durP1;ratioP1;P1;durP2;ratioP2;P2;SDS_P1;SDS_P2;PMS_P1;PMS_P2;Temp;Humidity;BMP_temperature;BMP_pressure;BME280_temperature;BME280_humidity;BME280_pressure;Samples;Min_cycle;Max_cycle;Signal;HPM_P1;HPM_P2
2024/04/13 00:00:38;;;;;;;6.50;3.70;;;;;;;;;;5469775;26;19994;-75
2024/04/13 00:03:05;;;;;;;5.85;3.58;;;;;;;;;;5459964;26;20018;-75
2024/04/13 00:05:32;;;;;;;8.70;3.33;;;;;;;;;;5446015;26;20330;-73
2024/04/13 00:07:59;;;;;;;6.20;3.60;;;;;;;;;;5450812;26;20003;-74
2024/04/13 00:10:25;;;;;;;6.75;3.55;;;;;;;;;;5448979;26;20010;-73
2024/04/13 00:12:51;;;;;;;7.47;3.70;;;;;;;;;;5465158;26;19998;-75
2024/04/13 00:15:18;;;;;;;7.07;3.63;;;;;;;;;;5462270;26;20009;-74
2024/04/13 00:17:45;;;;;;;6.43;3.53;;;;;;;;;;5436597;26;20002;-73
2024/04/13 00:20:11;;;;;;;5.78;3.40;;;;;;;;;;5457800;26;20003;-74
2024/04/13 00:22:38;;;;;;;7.05;3.47;;;;;;;;;;5465230;26;20013;-75
2024/04/13 00:25:05;;;;;;;6.25;3.50;;;;;;;;;;5463356;26;20715;-74
2024/04/13 00:27:31;;;;;;;6.88;3.38;;;;;;;;;;5454374;26;20561;-74
2024/04/13 00:29:58;;;;;;;6.95;3.25;;;;;;;;;;5470075;26;20002;-75
2024/04/13 00:32:25;;;;;;;4.93;3.53;;;;;;;;;;5436102;26;19998;-73
2024/04/13 00:34:52;;;;;;;6.13;3.30;;;;;;;;;;5453674;26;20661;-73
2024/04/13 00:37:18;;;;;;;8.73;3.47;;;;;;;;;;5465806;26;20129;-74
2024/04/13 00:39:45;;;;;;;7.00;3.17;;;;;;;;;;5440413;26;20011;-74
2024/04/13 00:42:13;;;;;;;6.40;3.20;;;;;;;;;;5439493;26;20007;-74
2024/04/13 00:44:42;;;;;;;5.85;3.20;;;;;;;;;;5461299;26;20355;-75
2024/04/13 00:47:09;;;;;;;6.80;3.25;;;;;;;;;;5451564;26;20083;-75
2024/04/13 00:49:37;;;;;;;6.30;3.30;;;;;;;;;;5445577;26;19994;-74
2024/04/13 00:52:06;;;;;;;4.93;3.03;;;;;;;;;;5462748;26;20018;-74
2024/04/13 00:54:34;;;;;;;5.85;2.97;;;;;;;;;;5460938;26;20488;-74
2024/04/13 00:57:00;;;;;;;;;;;;;;;;;;5457335;26;20909;-75
2024/04/13 00:59:27;;;;;;;4.85;2.83;;;;;;;;;;5436479;26;19989;-74
2024/04/13 01:01:56;;;;;;;7.70;3.42;;;;;;;;;;5470104;26;20002;-74
2024/04/13 01:04:22;;;;;;;;;;;;;;;;;;5436273;26;20008;-74
2024/04/13 01:06:51;;;;;;;5.13;2.75;;;;;;;;;;5444381;26;19943;-74
2024/04/13 01:09:20;;;;;;;7.22;3.13;;;;;;;;;;5457716;26;19998;-74
2024/04/13 01:11:46;;;;;;;6.97;2.83;;;;;;;;;;5455880;26;20075;-74
2024/04/13 01:14:13;;;;;;;6.38;3.15;;;;;;;;;;5418020;26;20013;-74
2024/04/13 01:16:40;;;;;;;5.30;3.08;;;;;;;;;;5448714;26;19998;-74
2024/04/13 01:19:07;;;;;;;5.50;2.83;;;;;;;;;;5462444;26;20013;-73
2024/04/13 01:21:34;;;;;;;5.57;3.40;;;;;;;;;;5437101;26;20063;-74
2024/04/13 01:24:04;;;;;;;6.75;3.15;;;;;;;;;;5469762;26;20463;-74
2024/04/13 01:26:41;;;;;;;5.75;2.85;;;;;;;;;;5433907;26;20038;-74
2024/04/13 01:29:08;;;;;;;6.28;3.20;;;;;;;;;;5468002;26;20014;-73
2024/04/13 01:31:35;;;;;;;7.03;3.38;;;;;;;;;;5454557;26;20953;-74
2024/04/13 01:34:05;;;;;;;10.32;4.63;;;;;;;;;;5464678;26;20007;-74
2024/04/13 01:36:39;;;;;;;5.40;2.90;;;;;;;;;;5459289;26;20034;-74
2024/04/13 01:39:10;;;;;;;4.90;3.03;;;;;;;;;;5454407;26;20010;-74
2024/04/13 01:41:41;;;;;;;5.80;3.13;;;;;;;;;;5458096;26;20376;-73
2024/04/13 01:44:07;;;;;;;5.13;2.85;;;;;;;;;;5445050;26;20070;-74
2024/04/13 01:46:34;;;;;;;5.07;3.33;;;;;;;;;;5448010;26;20464;-74
2024/04/13 01:49:04;;;;;;;6.15;3.20;;;;;;;;;;5459942;26;19998;-73
2024/04/13 01:51:31;;;;;;;6.85;3.08;;;;;;;;;;5446753;26;20038;-74
2024/04/13 01:53:58;;;;;;;8.07;3.80;;;;;;;;;;5445529;26;20058;-74
2024/04/13 01:56:25;;;;;;;6.30;3.53;;;;;;;;;;5459268;26;20066;-74
2024/04/13 01:58:52;;;;;;;5.88;3.20;;;;;;;;;;5453686;26;20303;-74
2024/04/13 02:01:20;;;;;;;9.05;4.43;;;;;;;;;;5472121;26;20018;-74
2024/04/13 02:03:47;;;;;;;7.32;3.75;;;;;;;;;;5448169;26;20003;-74
2024/04/13 02:06:14;;;;;;;6.95;3.75;;;;;;;;;;5411346;26;20018;-74
2024/04/13 02:08:40;;;;;;;7.00;3.53;;;;;;;;;;5438766;26;20014;-74
2024/04/13 02:11:07;;;;;;;8.07;3.88;;;;;;;;;;5450969;26;19995;-74
2024/04/13 02:13:34;;;;;;;6.10;3.42;;;;;;;;;;5443489;26;20470;-74
2024/04/13 02:16:00;;;;;;;9.15;3.60;;;;;;;;;;5420700;26;20013;-74
2024/04/13 02:18:27;;;;;;;9.52;3.95;;;;;;;;;;5472032;26;20006;-74
2024/04/13 02:20:55;;;;;;;6.97;3.72;;;;;;;;;;5452047;26;20034;-74
2024/04/13 02:23:22;;;;;;;5.90;3.90;;;;;;;;;;5440273;26;20010;-74
2024/04/13 02:25:51;;;;;;;6.60;3.90;;;;;;;;;;5449161;26;20002;-73
2024/04/13 02:28:18;;;;;;;7.72;3.90;;;;;;;;;;5462507;26;20002;-73
2024/04/13 02:30:44;;;;;;;6.97;3.78;;;;;;;;;;5461036;26;20450;-74
2024/04/13 02:33:11;;;;;;;6.78;3.60;;;;;;;;;;5435175;26;20776;-74
2024/04/13 02:35:38;;;;;;;7.45;3.65;;;;;;;;;;5444207;26;20368;-74
2024/04/13 02:38:04;;;;;;;7.60;4.00;;;;;;;;;;5469424;26;20005;-74
2024/04/13 02:40:31;;;;;;;4.93;3.70;;;;;;;;;;5475845;26;20002;-73
2024/04/13 02:42:57;;;;;;;8.30;3.67;;;;;;;;;;5436395;26;20083;-73
2024/04/13 02:45:24;;;;;;;9.82;3.38;;;;;;;;;;5442227;26;20451;-73
2024/04/13 02:47:50;;;;;;;6.88;4.07;;;;;;;;;;5436993;26;20017;-73
2024/04/13 02:50:17;;;;;;;6.82;3.67;;;;;;;;;;5460050;26;20331;-74
2024/04/13 02:52:44;;;;;;;8.50;3.60;;;;;;;;;;5478027;26;20017;-73
2024/04/13 02:55:10;;;;;;;6.07;3.95;;;;;;;;;;5437248;26;19999;-74
2024/04/13 02:57:37;;;;;;;10.68;3.92;;;;;;;;;;5479152;26;20097;-73
2024/04/13 03:00:04;;;;;;;5.88;3.70;;;;;;;;;;5476352;26;20029;-74
2024/04/13 03:02:30;;;;;;;4.90;3.30;;;;;;;;;;5408758;26;20034;-74
2024/04/13 03:04:57;;;;;;;6.22;3.90;;;;;;;;;;5448440;26;20005;-74
2024/04/13 03:07:24;;;;;;;6.15;3.50;;;;;;;;;;5454945;26;20003;-74
2024/04/13 03:09:50;;;;;;;8.02;3.45;;;;;;;;;;5467834;26;19998;-74
2024/04/13 03:12:17;;;;;;;5.03;3.38;;;;;;;;;;5432091;26;20003;-74
2024/04/13 03:14:44;;;;;;;6.50;3.50;;;;;;;;;;5415577;26;20022;-74
2024/04/13 03:17:10;;;;;;;4.78;3.38;;;;;;;;;;5470880;26;20002;-73
2024/04/13 03:19:38;;;;;;;6.15;3.60;;;;;;;;;;5411427;26;19998;-73
2024/04/13 03:22:05;;;;;;;5.80;3.72;;;;;;;;;;5468166;26;20021;-73
2024/04/13 03:24:34;;;;;;;6.65;3.97;;;;;;;;;;5471485;26;19994;-73
2024/04/13 03:27:02;;;;;;;7.97;3.63;;;;;;;;;;5473707;26;20483;-73
2024/04/13 03:29:29;;;;;;;10.87;4.33;;;;;;;;;;5441405;26;20009;-73
2024/04/13 03:31:56;;;;;;;7.03;4.25;;;;;;;;;;5432052;26;20018;-73
2024/04/13 03:34:23;;;;;;;6.50;4.00;;;;;;;;;;5462362;26;20002;-74
2024/04/13 03:36:49;;;;;;;7.43;3.92;;;;;;;;;;5441500;26;19994;-73
2024/04/13 03:39:16;;;;;;;6.28;4.10;;;;;;;;;;5445190;26;20006;-74
2024/04/13 03:41:43;;;;;;;8.27;3.78;;;;;;;;;;5477340;26;20038;-74
2024/04/13 03:44:09;;;;;;;7.88;3.90;;;;;;;;;;5438821;26;20078;-73
2024/04/13 03:46:36;;;;;;;8.13;4.45;;;;;;;;;;5432586;26;20070;-73
2024/04/13 03:49:02;;;;;;;7.03;3.92;;;;;;;;;;5447993;26;19998;-73
2024/04/13 03:51:29;;;;;;;8.32;4.38;;;;;;;;;;5392907;26;19995;-74
2024/04/13 03:53:57;;;;;;;9.70;4.43;;;;;;;;;;5475690;26;20504;-74
2024/04/13 03:56:24;;;;;;;7.95;4.20;;;;;;;;;;5444322;26;20070;-73
2024/04/13 03:58:50;;;;;;;6.32;4.13;;;;;;;;;;5464268;26;19998;-74
2024/04/13 04:01:17;;;;;;;12.00;4.10;;;;;;;;;;5460991;26;20009;-74
2024/04/13 04:03:43;;;;;;;7.70;3.92;;;;;;;;;;5458392;26;20007;-74
2024/04/13 04:06:10;;;;;;;10.77;4.85;;;;;;;;;;5456811;26;19999;-74
2024/04/13 04:08:37;;;;;;;6.53;4.13;;;;;;;;;;5447802;26;20673;-72
2024/04/13 04:11:03;;;;;;;6.60;4.30;;;;;;;;;;5445955;26;20064;-73
2024/04/13 04:13:30;;;;;;;5.82;3.63;;;;;;;;;;5460047;26;20006;-72
2024/04/13 04:15:56;;;;;;;8.30;4.88;;;;;;;;;;5452529;26;20009;-72
2024/04/13 04:18:22;;;;;;;7.63;4.47;;;;;;;;;;5450522;26;20013;-72
2024/04/13 04:20:49;;;;;;;6.13;4.07;;;;;;;;;;5441093;26;20372;-73
2024/04/13 04:23:16;;;;;;;11.05;4.60;;;;;;;;;;5466367;26;20022;-73
2024/04/13 04:25:42;;;;;;;7.47;4.68;;;;;;;;;;5424672;26;20298;-73
2024/04/13 04:28:11;;;;;;;7.10;4.22;;;;;;;;;;5440660;26;19994;-73
2024/04/13 04:30:38;;;;;;;7.13;4.47;;;;;;;;;;5436278;26;20010;-72
2024/04/13 04:33:05;;;;;;;6.97;4.75;;;;;;;;;;5430960;26;20002;-73
2024/04/13 04:35:31;;;;;;;8.35;4.57;;;;;;;;;;5405679;26;20137;-72
2024/04/13 04:37:58;;;;;;;8.90;4.55;;;;;;;;;;5450380;26;19994;-73
2024/04/13 04:40:24;;;;;;;7.88;4.50;;;;;;;;;;5427393;26;20830;-73
2024/04/13 04:42:51;;;;;;;7.85;4.35;;;;;;;;;;5415370;26;19998;-73
2024/04/13 04:45:18;;;;;;;7.28;5.00;;;;;;;;;;5421465;26;20003;-73
2024/04/13 04:47:46;;;;;;;7.55;4.70;;;;;;;;;;5440533;26;19995;-73
2024/04/13 04:50:13;;;;;;;7.97;4.43;;;;;;;;;;5445077;26;20002;-73
2024/04/13 04:52:39;;;;;;;9.25;4.50;;;;;;;;;;5448725;26;20014;-73
2024/04/13 04:55:09;;;;;;;7.63;4.45;;;;;;;;;;5445416;26;20018;-73
2024/04/13 04:57:36;;;;;;;7.63;4.40;;;;;;;;;;5473108;26;20013;-72
2024/04/13 05:00:04;;;;;;;11.13;5.60;;;;;;;;;;5454844;26;20006;-73
2024/04/13 05:02:31;;;;;;;10.68;4.85;;;;;;;;;;5465411;26;20026;-73
2024/04/13 05:04:58;;;;;;;10.05;4.70;;;;;;;;;;5445858;26;20458;-73
2024/04/13 05:07:24;;;;;;;11.00;5.35;;;;;;;;;;5438154;26;20009;-72
2024/04/13 05:09:51;;;;;;;8.30;5.15;;;;;;;;;;5439292;26;19999;-73
2024/04/13 05:12:17;;;;;;;8.40;5.20;;;;;;;;;;5460931;26;20013;-73
2024/04/13 05:14:44;;;;;;;9.05;5.10;;;;;;;;;;5472278;26;19999;-73
2024/04/13 05:17:13;;;;;;;10.20;5.30;;;;;;;;;;5467099;26;20042;-72
2024/04/13 05:19:39;;;;;;;8.65;4.75;;;;;;;;;;5475049;26;20061;-72
2024/04/13 05:22:06;;;;;;;9.07;5.65;;;;;;;;;;5438445;26;20003;-74
2024/04/13 05:24:33;;;;;;;9.02;5.00;;;;;;;;;;5463459;26;20075;-79
2024/04/13 05:27:06;;;;;;;10.43;5.85;;;;;;;;;;5440755;26;20011;-72
2024/04/13 05:29:34;;;;;;;8.63;5.95;;;;;;;;;;5457163;26;20809;-72
2024/04/13 05:32:02;;;;;;;12.93;6.20;;;;;;;;;;5422218;26;20164;-72
2024/04/13 05:34:29;;;;;;;10.88;5.85;;;;;;;;;;5441301;26;20330;-72
2024/04/13 05:36:55;;;;;;;7.85;5.43;;;;;;;;;;5424643;26;19999;-72
2024/04/13 05:39:22;;;;;;;11.80;5.93;;;;;;;;;;5459335;26;20989;-73
2024/04/13 05:41:49;;;;;;;9.85;5.38;;;;;;;;;;5456447;26;20007;-72
2024/04/13 05:44:16;;;;;;;9.27;5.43;;;;;;;;;;5460887;26;20564;-72
2024/04/13 05:46:42;;;;;;;10.60;6.15;;;;;;;;;;5463965;26;20002;-72
2024/04/13 05:49:09;;;;;;;11.38;5.78;;;;;;;;;;5469500;26;20022;-72
2024/04/13 05:51:35;;;;;;;7.85;5.47;;;;;;;;;;5460931;26;20010;-72
2024/04/13 05:54:02;;;;;;;8.93;5.82;;;;;;;;;;5422177;26;20626;-72
2024/04/13 05:56:29;;;;;;;11.68;5.80;;;;;;;;;;5471951;26;20407;-72
2024/04/13 05:58:55;;;;;;;10.05;5.80;;;;;;;;;;5462928;26;19998;-72
2024/04/13 06:01:23;;;;;;;9.27;6.05;;;;;;;;;;5449698;26;20013;-72
2024/04/13 06:03:49;;;;;;;9.60;5.38;;;;;;;;;;5434470;26;20454;-72
2024/04/13 06:06:16;;;;;;;7.65;5.35;;;;;;;;;;5458735;26;20016;-72
2024/04/13 06:08:43;;;;;;;12.02;5.90;;;;;;;;;;5453028;26;20076;-72
2024/04/13 06:11:09;;;;;;;9.70;6.25;;;;;;;;;;5454629;26;20007;-71
2024/04/13 06:13:36;;;;;;;9.98;6.03;;;;;;;;;;5411260;26;20012;-71
2024/04/13 06:16:03;;;;;;;13.63;6.53;;;;;;;;;;5467145;26;20003;-71
2024/04/13 06:18:30;;;;;;;10.20;6.30;;;;;;;;;;5457498;26;19998;-72
2024/04/13 06:20:56;;;;;;;10.38;5.82;;;;;;;;;;5437804;26;20011;-72
2024/04/13 06:23:23;;;;;;;10.48;6.68;;;;;;;;;;5424721;26;20790;-72
2024/04/13 06:25:49;;;;;;;12.48;6.95;;;;;;;;;;5464825;26;20002;-72
2024/04/13 06:28:20;;;;;;;11.50;6.45;;;;;;;;;;5453008;26;19998;-72
2024/04/13 06:30:47;;;;;;;13.68;7.78;;;;;;;;;;5442001;26;20018;-72
2024/04/13 06:33:13;;;;;;;13.68;7.60;;;;;;;;;;5440876;26;20072;-72
2024/04/13 06:35:40;;;;;;;12.80;8.52;;;;;;;;;;5421831;26;20005;-73
2024/04/13 06:38:07;;;;;;;11.27;8.52;;;;;;;;;;5431769;26;19998;-73
2024/04/13 06:40:35;;;;;;;10.45;8.40;;;;;;;;;;5427468;26;20014;-73
2024/04/13 06:43:02;;;;;;;12.75;8.90;;;;;;;;;;5463283;26;20012;-73
2024/04/13 06:45:29;;;;;;;13.65;9.02;;;;;;;;;;5455016;26;20049;-73
2024/04/13 06:47:55;;;;;;;15.27;9.43;;;;;;;;;;5455017;26;20021;-73
2024/04/13 06:50:22;;;;;;;15.18;10.07;;;;;;;;;;5452864;26;20014;-73
2024/04/13 06:52:48;;;;;;;12.70;9.95;;;;;;;;;;5433719;26;20045;-73
2024/04/13 06:55:16;;;;;;;14.35;9.88;;;;;;;;;;5430115;26;20006;-73
2024/04/13 06:57:43;;;;;;;16.08;9.80;;;;;;;;;;5470574;26;19999;-72
2024/04/13 07:00:09;;;;;;;17.17;8.98;;;;;;;;;;5439007;26;20011;-73
2024/04/13 07:02:36;;;;;;;13.48;10.07;;;;;;;;;;5461949;26;20002;-73
2024/04/13 07:05:03;;;;;;;15.00;9.65;;;;;;;;;;5426857;26;20003;-73
2024/04/13 07:07:29;;;;;;;11.20;9.00;;;;;;;;;;5436839;26;20009;-73
2024/04/13 07:09:58;;;;;;;13.88;9.40;;;;;;;;;;5441943;26;20013;-72
2024/04/13 07:12:25;;;;;;;14.90;9.38;;;;;;;;;;5429975;26;20010;-73
2024/04/13 07:14:53;;;;;;;16.98;9.13;;;;;;;;;;5412226;26;20562;-73
2024/04/13 07:17:20;;;;;;;15.43;9.23;;;;;;;;;;5412329;26;21142;-73
2024/04/13 07:19:46;;;;;;;14.52;9.30;;;;;;;;;;5455228;26;20075;-73
2024/04/13 07:22:13;;;;;;;19.20;8.45;;;;;;;;;;5447535;26;20003;-73
2024/04/13 07:24:39;;;;;;;12.45;8.10;;;;;;;;;;5443015;26;20018;-73
2024/04/13 07:27:06;;;;;;;13.73;8.75;;;;;;;;;;5435941;26;20343;-73
2024/04/13 07:29:32;;;;;;;13.10;8.73;;;;;;;;;;5464446;26;20025;-72
2024/04/13 07:31:59;;;;;;;13.98;9.30;;;;;;;;;;5460201;26;20013;-72
2024/04/13 07:34:25;;;;;;;13.88;7.72;;;;;;;;;;5456955;26;20002;-73
2024/04/13 07:36:52;;;;;;;17.27;8.25;;;;;;;;;;5452986;26;20002;-73
2024/04/13 07:39:21;;;;;;;11.85;8.27;;;;;;;;;;5426411;26;20051;-72
2024/04/13 07:41:48;;;;;;;16.15;8.07;;;;;;;;;;5456469;26;20010;-73
2024/04/13 07:44:14;;;;;;;10.70;7.30;;;;;;;;;;5470671;26;19999;-74
2024/04/13 07:46:41;;;;;;;13.02;7.15;;;;;;;;;;5402075;26;19998;-73
2024/04/13 07:49:07;;;;;;;11.63;7.57;;;;;;;;;;5439428;26;20010;-73
2024/04/13 07:51:34;;;;;;;12.57;7.40;;;;;;;;;;5410643;26;20017;-74
2024/04/13 07:54:04;;;;;;;11.82;8.48;;;;;;;;;;5421725;26;20011;-73
2024/04/13 07:56:30;;;;;;;10.30;6.72;;;;;;;;;;5447567;26;19994;-73
2024/04/13 07:58:57;;;;;;;13.52;7.93;;;;;;;;;;5440617;26;20017;-73
2024/04/13 08:01:23;;;;;;;11.73;7.65;;;;;;;;;;5428796;26;20002;-73
2024/04/13 08:03:50;;;;;;;11.90;7.70;;;;;;;;;;5451798;26;20465;-72
2024/04/13 08:06:16;;;;;;;10.63;8.05;;;;;;;;;;5470164;26;20433;-73
2024/04/13 08:08:43;;;;;;;12.57;7.85;;;;;;;;;;5491613;26;19998;-73
2024/04/13 08:11:10;;;;;;;14.00;8.02;;;;;;;;;;5459713;26;20005;-72
2024/04/13 08:13:36;;;;;;;13.48;7.95;;;;;;;;;;5451687;26;20040;-73
2024/04/13 08:16:04;;;;;;;11.30;7.45;;;;;;;;;;5437527;26;19999;-73
2024/04/13 08:18:31;;;;;;;10.95;7.43;;;;;;;;;;5453988;26;20441;-73
2024/04/13 08:20:57;;;;;;;10.63;7.10;;;;;;;;;;5438476;26;19995;-73
2024/04/13 08:23:24;;;;;;;10.75;7.07;;;;;;;;;;5433336;26;20014;-74
2024/04/13 08:25:50;;;;;;;11.00;7.10;;;;;;;;;;5462180;26;20685;-73
2024/04/13 08:28:17;;;;;;;12.68;7.25;;;;;;;;;;5439196;26;19995;-74
2024/04/13 08:30:43;;;;;;;10.18;7.35;;;;;;;;;;5427427;26;20002;-73
2024/04/13 08:33:10;;;;;;;10.57;6.82;;;;;;;;;;5434932;26;20001;-74
2024/04/13 08:35:37;;;;;;;9.40;6.78;;;;;;;;;;5452396;26;20400;-74
2024/04/13 08:38:03;;;;;;;11.52;6.70;;;;;;;;;;5458795;26;20517;-73
2024/04/13 08:40:33;;;;;;;9.75;7.00;;;;;;;;;;5461218;26;20036;-74
2024/04/13 08:43:03;;;;;;;14.00;7.45;;;;;;;;;;5451304;26;20014;-74
2024/04/13 08:45:29;;;;;;;10.65;7.22;;;;;;;;;;5436758;26;20474;-74
2024/04/13 08:47:59;;;;;;;13.50;7.45;;;;;;;;;;5465081;26;20074;-73
2024/04/13 08:50:27;;;;;;;14.45;8.20;;;;;;;;;;5433243;26;20088;-75
2024/04/13 08:52:53;;;;;;;14.65;7.43;;;;;;;;;;5457347;26;20076;-74
2024/04/13 08:55:20;;;;;;;16.73;8.70;;;;;;;;;;5455955;26;20003;-76
2024/04/13 08:57:46;;;;;;;11.75;6.82;;;;;;;;;;5465170;26;20045;-75
2024/04/13 09:00:19;;;;;;;14.02;8.43;;;;;;;;;;5439955;26;20003;-74
2024/04/13 09:02:47;;;;;;;9.63;7.20;;;;;;;;;;5421814;26;20069;-75
2024/04/13 09:05:15;;;;;;;;;;;;;;;;;;5478160;26;20453;-75
2024/04/13 09:07:42;;;;;;;11.18;6.75;;;;;;;;;;5451901;26;19934;-74
2024/04/13 09:10:10;;;;;;;10.40;6.40;;;;;;;;;;5458099;26;20474;-75
2024/04/13 09:12:37;;;;;;;10.30;6.85;;;;;;;;;;5477008;26;20014;-74
2024/04/13 09:15:04;;;;;;;9.75;6.65;;;;;;;;;;5456851;26;20009;-74
2024/04/13 09:17:34;;;;;;;11.88;7.93;;;;;;;;;;5413228;26;20821;-73
2024/04/13 09:20:07;;;;;;;12.10;7.18;;;;;;;;;;5460564;26;20038;-74
2024/04/13 09:22:34;;;;;;;10.25;6.53;;;;;;;;;;5426629;26;20029;-74
2024/04/13 09:25:01;;;;;;;12.13;7.63;;;;;;;;;;5443367;26;20030;-74
2024/04/13 09:27:31;;;;;;;12.95;7.30;;;;;;;;;;5459508;26;20007;-74
2024/04/13 09:30:08;;;;;;;11.75;8.20;;;;;;;;;;5469385;26;19998;-74
2024/04/13 09:32:35;;;;;;;12.98;7.38;;;;;;;;;;5447730;26;19998;-74
2024/04/13 09:35:15;;;;;;;14.03;7.50;;;;;;;;;;5444447;26;20084;-74
2024/04/13 09:37:41;;;;;;;11.07;6.90;;;;;;;;;;5448824;26;19999;-73
2024/04/13 09:40:10;;;;;;;13.07;7.32;;;;;;;;;;5442564;26;20007;-73
2024/04/13 09:42:37;;;;;;;12.55;7.20;;;;;;;;;;5473163;26;20017;-73
2024/04/13 09:45:05;;;;;;;13.60;8.13;;;;;;;;;;5445760;26;20003;-73
2024/04/13 09:47:32;;;;;;;12.88;8.45;;;;;;;;;;5464581;26;19995;-72
2024/04/13 09:49:58;;;;;;;12.48;7.90;;;;;;;;;;5418408;26;20080;-74
2024/04/13 09:52:26;;;;;;;12.18;7.03;;;;;;;;;;5450187;26;20009;-74
2024/04/13 09:54:54;;;;;;;13.45;8.35;;;;;;;;;;5462268;26;20047;-74
2024/04/13 09:57:24;;;;;;;14.93;8.05;;;;;;;;;;5466257;26;20002;-73
2024/04/13 09:59:51;;;;;;;12.15;7.28;;;;;;;;;;5466113;26;20012;-73
2024/04/13 10:02:18;;;;;;;13.15;7.53;;;;;;;;;;5459757;26;20014;-73
2024/04/13 10:04:45;;;;;;;12.90;8.40;;;;;;;;;;5431742;26;20860;-73
2024/04/13 10:07:11;;;;;;;14.48;7.57;;;;;;;;;;5409970;26;20007;-73
2024/04/13 10:09:39;;;;;;;15.02;8.82;;;;;;;;;;5442354;26;20006;-72
2024/04/13 10:12:07;;;;;;;11.00;7.95;;;;;;;;;;5452709;26;20079;-73
2024/04/13 10:14:34;;;;;;;14.45;8.43;;;;;;;;;;5432638;26;20550;-74
2024/04/13 10:17:03;;;;;;;13.13;7.82;;;;;;;;;;5427168;26;20016;-73
2024/04/13 10:19:30;;;;;;;13.80;8.63;;;;;;;;;;5442931;26;20047;-74
2024/04/13 10:21:57;;;;;;;12.02;7.95;;;;;;;;;;5458375;26;20009;-74
2024/04/13 10:24:26;;;;;;;11.73;7.25;;;;;;;;;;5442496;26;19999;-74
2024/04/13 10:26:53;;;;;;;13.38;8.15;;;;;;;;;;5444443;26;20003;-74
2024/04/13 10:29:25;;;;;;;14.63;8.35;;;;;;;;;;5466121;26;20013;-73
2024/04/13 10:31:52;;;;;;;10.60;7.00;;;;;;;;;;5412930;26;19995;-74
2024/04/13 10:34:25;;;;;;;11.55;6.72;;;;;;;;;;5456581;26;20021;-74
2024/04/13 10:36:57;;;;;;;11.32;7.40;;;;;;;;;;5448664;26;20018;-75
2024/04/13 10:39:24;;;;;;;14.73;8.15;;;;;;;;;;5430881;26;20003;-74
2024/04/13 10:41:51;;;;;;;9.38;6.90;;;;;;;;;;5463760;26;20887;-74
2024/04/13 10:44:25;;;;;;;11.60;6.22;;;;;;;;;;5429498;26;19994;-74
2024/04/13 10:46:51;;;;;;;11.20;6.78;;;;;;;;;;5458401;26;20070;-74
2024/04/13 10:49:18;;;;;;;10.18;6.60;;;;;;;;;;5445806;26;20423;-74
2024/04/13 10:51:46;;;;;;;11.25;6.07;;;;;;;;;;5453327;26;20005;-74
2024/04/13 10:54:13;;;;;;;11.52;5.75;;;;;;;;;;5473063;26;20010;-73
2024/04/13 10:56:42;;;;;;;9.27;4.90;;;;;;;;;;5471700;26;21213;-75
2024/04/13 10:59:08;;;;;;;10.00;6.15;;;;;;;;;;5458999;26;20013;-74
2024/04/13 11:01:42;;;;;;;8.50;5.18;;;;;;;;;;5456813;26;20007;-74
2024/04/13 11:04:12;;;;;;;9.77;5.47;;;;;;;;;;5458895;26;20452;-75
2024/04/13 11:06:39;;;;;;;8.70;4.93;;;;;;;;;;5411624;26;20021;-74
2024/04/13 11:09:06;;;;;;;10.10;5.55;;;;;;;;;;5458059;26;20510;-74
2024/04/13 11:11:34;;;;;;;7.38;5.45;;;;;;;;;;5462765;26;20014;-74
2024/04/13 11:14:01;;;;;;;10.02;4.85;;;;;;;;;;5415156;26;20010;-74
2024/04/13 11:16:27;;;;;;;9.48;4.60;;;;;;;;;;5443848;26;20079;-74
2024/04/13 11:18:55;;;;;;;8.23;4.60;;;;;;;;;;5465607;26;19994;-73
2024/04/13 11:21:23;;;;;;;12.35;4.45;;;;;;;;;;5429061;26;20018;-73
2024/04/13 11:23:50;;;;;;;8.32;4.78;;;;;;;;;;5469816;26;20506;-75
2024/04/13 11:26:16;;;;;;;8.07;4.53;;;;;;;;;;5428875;26;20003;-73
2024/04/13 11:28:43;;;;;;;7.00;3.88;;;;;;;;;;5455607;26;20053;-74
2024/04/13 11:31:09;;;;;;;8.45;4.20;;;;;;;;;;5426565;26;20014;-75
2024/04/13 11:33:36;;;;;;;8.65;3.90;;;;;;;;;;5424288;26;19994;-75
2024/04/13 11:36:03;;;;;;;12.18;3.97;;;;;;;;;;5459651;26;21018;-75
2024/04/13 11:38:33;;;;;;;9.13;3.80;;;;;;;;;;5429563;26;19999;-74
2024/04/13 11:40:59;;;;;;;11.95;4.95;;;;;;;;;;5414666;26;20018;-74
2024/04/13 11:43:27;;;;;;;7.90;4.20;;;;;;;;;;5458668;26;20375;-74
2024/04/13 11:45:54;;;;;;;9.25;3.85;;;;;;;;;;5434315;26;20021;-74
2024/04/13 11:48:20;;;;;;;7.22;3.40;;;;;;;;;;5463944;26;20002;-74
2024/04/13 11:50:48;;;;;;;8.55;3.28;;;;;;;;;;5437403;26;20003;-74
2024/04/13 11:53:14;;;;;;;7.55;2.50;;;;;;;;;;5441340;26;20010;-74
2024/04/13 11:55:41;;;;;;;4.38;2.50;;;;;;;;;;5441477;26;19998;-74
2024/04/13 11:58:07;;;;;;;8.90;2.70;;;;;;;;;;5469662;26;20021;-74
2024/04/13 12:00:34;;;;;;;6.80;2.80;;;;;;;;;;5425750;26;20017;-73
2024/04/13 12:03:01;;;;;;;4.68;2.47;;;;;;;;;;5457839;26;20002;-73
2024/04/13 12:05:28;;;;;;;10.10;2.60;;;;;;;;;;5464988;26;19994;-74
2024/04/13 12:07:55;;;;;;;8.52;2.30;;;;;;;;;;5454067;26;20002;-73
2024/04/13 12:10:21;;;;;;;6.47;2.80;;;;;;;;;;5442204;26;19995;-73
2024/04/13 12:12:48;;;;;;;5.13;2.75;;;;;;;;;;5411243;26;20335;-74
2024/04/13 12:15:14;;;;;;;5.22;2.53;;;;;;;;;;5450398;26;20010;-73
2024/04/13 12:17:41;;;;;;;5.07;2.28;;;;;;;;;;5446722;26;20017;-74
2024/04/13 12:20:08;;;;;;;6.07;2.25;;;;;;;;;;5471011;26;19998;-74
2024/04/13 12:22:35;;;;;;;5.72;2.03;;;;;;;;;;5453197;26;20017;-73
2024/04/13 12:25:03;;;;;;;6.13;2.55;;;;;;;;;;5440514;26;20014;-73
2024/04/13 12:27:29;;;;;;;9.23;2.47;;;;;;;;;;5434240;26;20002;-73
2024/04/13 12:29:56;;;;;;;5.43;2.45;;;;;;;;;;5424236;26;20037;-74
2024/04/13 12:32:26;;;;;;;6.57;2.30;;;;;;;;;;5436801;26;20022;-73
2024/04/13 12:34:52;;;;;;;5.07;2.20;;;;;;;;;;5444187;26;20026;-73
2024/04/13 12:37:19;;;;;;;7.13;2.53;;;;;;;;;;5432276;26;20003;-74
2024/04/13 12:39:45;;;;;;;6.28;2.58;;;;;;;;;;5461114;26;20448;-74
2024/04/13 12:42:12;;;;;;;6.05;2.20;;;;;;;;;;5463461;26;20555;-73
2024/04/13 12:44:38;;;;;;;5.55;2.53;;;;;;;;;;5409846;26;19998;-73
2024/04/13 12:47:05;;;;;;;5.85;2.00;;;;;;;;;;5469928;26;20366;-74
2024/04/13 12:49:36;;;;;;;7.63;2.70;;;;;;;;;;5450001;26;20002;-74
2024/04/13 12:52:03;;;;;;;7.25;2.20;;;;;;;;;;5463225;26;20019;-73
2024/04/13 12:54:29;;;;;;;4.80;2.47;;;;;;;;;;5462987;26;20039;-73
2024/04/13 12:56:56;;;;;;;4.70;2.30;;;;;;;;;;5467685;26;20021;-73
2024/04/13 12:59:23;;;;;;;5.30;2.57;;;;;;;;;;5468005;26;19994;-74
2024/04/13 13:01:49;;;;;;;6.68;2.85;;;;;;;;;;5456400;26;20002;-75
2024/04/13 13:04:16;;;;;;;4.60;2.50;;;;;;;;;;5444776;26;20125;-74
2024/04/13 13:06:43;;;;;;;4.72;2.83;;;;;;;;;;5438288;26;20458;-73
2024/04/13 13:09:10;;;;;;;7.07;3.05;;;;;;;;;;5436289;26;20013;-73
2024/04/13 13:11:36;;;;;;;6.63;2.72;;;;;;;;;;5477325;26;20002;-74
2024/04/13 13:14:03;;;;;;;12.80;3.10;;;;;;;;;;5463418;26;19994;-73
2024/04/13 13:16:29;;;;;;;7.78;3.20;;;;;;;;;;5463800;26;20014;-74
2024/04/13 13:18:56;;;;;;;9.23;3.38;;;;;;;;;;5421656;26;20015;-74
2024/04/13 13:21:23;;;;;;;6.68;3.03;;;;;;;;;;5457530;26;20326;-73
2024/04/13 13:23:50;;;;;;;6.70;2.50;;;;;;;;;;5470124;26;20342;-73
2024/04/13 13:26:16;;;;;;;7.82;3.05;;;;;;;;;;5410735;26;20003;-72
2024/04/13 13:28:42;;;;;;;11.77;3.35;;;;;;;;;;5457902;26;19998;-74
2024/04/13 13:31:09;;;;;;;7.55;2.70;;;;;;;;;;5417619;26;20002;-73
2024/04/13 13:33:35;;;;;;;5.57;3.15;;;;;;;;;;5440018;26;20049;-73
2024/04/13 13:36:02;;;;;;;9.45;3.08;;;;;;;;;;5438813;26;20532;-73
2024/04/13 13:38:29;;;;;;;7.85;3.30;;;;;;;;;;5450639;26;20075;-73
2024/04/13 13:40:55;;;;;;;6.43;2.97;;;;;;;;;;5478598;26;20075;-73
2024/04/13 13:43:22;;;;;;;8.15;2.80;;;;;;;;;;5438850;26;19999;-73
2024/04/13 13:45:48;;;;;;;6.68;2.80;;;;;;;;;;5471451;26;20003;-73
2024/04/13 13:48:16;;;;;;;6.55;2.75;;;;;;;;;;5457553;26;20060;-73
2024/04/13 13:50:44;;;;;;;8.63;2.50;;;;;;;;;;5429287;26;20135;-72
2024/04/13 13:53:10;;;;;;;5.35;2.78;;;;;;;;;;5463798;26;20051;-73
2024/04/13 13:55:37;;;;;;;6.50;2.90;;;;;;;;;;5450514;26;19994;-72
2024/04/13 13:58:03;;;;;;;4.93;2.53;;;;;;;;;;5465537;26;20003;-74
2024/04/13 14:00:30;;;;;;;7.80;2.53;;;;;;;;;;5445038;26;20369;-73
2024/04/13 14:02:56;;;;;;;9.00;2.30;;;;;;;;;;5419309;26;20633;-73
2024/04/13 14:05:23;;;;;;;5.60;2.35;;;;;;;;;;5419628;26;20009;-74
2024/04/13 14:07:49;;;;;;;8.20;3.40;;;;;;;;;;5449692;26;20010;-74
2024/04/13 14:10:16;;;;;;;10.55;3.40;;;;;;;;;;5445528;26;20072;-73
2024/04/13 14:12:42;;;;;;;6.60;2.92;;;;;;;;;;5433348;26;20003;-73
2024/04/13 14:15:09;;;;;;;4.47;2.40;;;;;;;;;;5431224;26;20009;-73
2024/04/13 14:17:36;;;;;;;4.45;2.63;;;;;;;;;;5448782;26;20068;-73
2024/04/13 14:20:03;;;;;;;4.90;2.50;;;;;;;;;;5440760;26;20020;-73
2024/04/13 14:22:31;;;;;;;5.13;2.85;;;;;;;;;;5444566;26;20066;-73
2024/04/13 14:24:58;;;;;;;6.20;2.88;;;;;;;;;;5400149;26;20003;-73
2024/04/13 14:27:24;;;;;;;13.32;3.45;;;;;;;;;;5440170;26;20446;-74
2024/04/13 14:29:51;;;;;;;5.90;3.20;;;;;;;;;;5459861;26;19998;-73
2024/04/13 14:32:17;;;;;;;5.15;2.35;;;;;;;;;;5432010;26;20003;-74
2024/04/13 14:34:44;;;;;;;6.25;2.40;;;;;;;;;;5445318;26;20006;-74
2024/04/13 14:37:10;;;;;;;11.40;3.50;;;;;;;;;;5457035;26;20464;-72